sensor_id;sensor_type;location;lat;lon;timestamp;temperature;humidity
19174;DHT22;9719;49.322;8.536;2023-03-31T00:02:38;11.70;99.90
19174;DHT22;9719;49.322;8.536;2023-03-31T00:07:42;11.70;99.90
19174;DHT22;9719;49.322;8.536;2023-03-31T00:12:45;11.80;99.90
19174;DHT22;9719;49.322;8.536;2023-03-31T00:17:47;11.70;99.90
19174;DHT22;9719;49.322;8.536;2023-03-31T00:22:50;11.70;99.90
19174;DHT22;9719;49.322;8.536;2023-03-31T00:27:54;11.70;99.90
19174;DHT22;9719;49.322;8.536;2023-03-31T00:32:55;11.70;99.90
19174;DHT22;9719;49.322;8.536;2023-03-31T00:37:59;11.70;99.90
19174;DHT22;9719;49.322;8.536;2023-03-31T00:43:01;11.70;99.90
19174;DHT22;9719;49.322;8.536;2023-03-31T00:48:06;11.80;99.90
19174;DHT22;9719;49.322;8.536;2023-03-31T00:53:12;11.80;99.90
19174;DHT22;9719;49.322;8.536;2023-03-31T00:58:17;11.80;99.90
19174;DHT22;9719;49.322;8.536;2023-03-31T01:03:20;11.70;99.90
19174;DHT22;9719;49.322;8.536;2023-03-31T01:08:25;11.80;99.90
19174;DHT22;9719;49.322;8.536;2023-03-31T01:13:29;11.80;99.90
19174;DHT22;9719;49.322;8.536;2023-03-31T01:18:32;11.80;99.90
19174;DHT22;9719;49.322;8.536;2023-03-31T01:24:07;11.90;99.90
19174;DHT22;9719;49.322;8.536;2023-03-31T01:29:29;12.00;99.90
19174;DHT22;9719;49.322;8.536;2023-03-31T01:34:57;12.00;99.90
19174;DHT22;9719;49.322;8.536;2023-03-31T01:45:38;11.80;99.90
19174;DHT22;9719;49.322;8.536;2023-03-31T01:50:45;11.80;99.90
19174;DHT22;9719;49.322;8.536;2023-03-31T01:55:54;11.70;99.90
19174;DHT22;9719;49.322;8.536;2023-03-31T02:01:01;11.70;99.90
19174;DHT22;9719;49.322;8.536;2023-03-31T02:06:08;11.80;99.90
19174;DHT22;9719;49.322;8.536;2023-03-31T02:11:12;11.80;99.90
19174;DHT22;9719;49.322;8.536;2023-03-31T02:16:18;11.80;99.90
19174;DHT22;9719;49.322;8.536;2023-03-31T02:21:23;11.80;99.90
19174;DHT22;9719;49.322;8.536;2023-03-31T02:26:29;11.80;99.90
19174;DHT22;9719;49.322;8.536;2023-03-31T02:31:37;11.80;99.90
19174;DHT22;9719;49.322;8.536;2023-03-31T02:36:42;11.70;99.90
19174;DHT22;9719;49.322;8.536;2023-03-31T02:41:47;11.70;99.90
19174;DHT22;9719;49.322;8.536;2023-03-31T02:46:49;11.70;99.90
19174;DHT22;9719;49.322;8.536;2023-03-31T02:52:08;11.70;99.90
19174;DHT22;9719;49.322;8.536;2023-03-31T03:02:51;11.90;99.90
19174;DHT22;9719;49.322;8.536;2023-03-31T03:08:06;11.90;99.90
19174;DHT22;9719;49.322;8.536;2023-03-31T03:13:18;11.90;99.90
19174;DHT22;9719;49.322;8.536;2023-03-31T03:18:21;12.00;99.90
19174;DHT22;9719;49.322;8.536;2023-03-31T03:23:22;12.00;99.90
19174;DHT22;9719;49.322;8.536;2023-03-31T03:28:26;12.00;99.90
19174;DHT22;9719;49.322;8.536;2023-03-31T03:33:28;12.00;99.90
19174;DHT22;9719;49.322;8.536;2023-03-31T03:38:30;12.00;99.90
19174;DHT22;9719;49.322;8.536;2023-03-31T03:43:33;12.00;99.90
19174;DHT22;9719;49.322;8.536;2023-03-31T03:48:35;12.00;99.90
19174;DHT22;9719;49.322;8.536;2023-03-31T03:53:37;11.90;99.90
19174;DHT22;9719;49.322;8.536;2023-03-31T03:58:40;11.90;99.90
19174;DHT22;9719;49.322;8.536;2023-03-31T04:03:42;11.80;99.90
19174;DHT22;9719;49.322;8.536;2023-03-31T04:08:44;11.70;99.90
19174;DHT22;9719;49.322;8.536;2023-03-31T04:13:47;11.80;99.90
19174;DHT22;9719;49.322;8.536;2023-03-31T04:18:49;11.80;99.90
19174;DHT22;9719;49.322;8.536;2023-03-31T04:23:53;11.80;99.90
19174;DHT22;9719;49.322;8.536;2023-03-31T04:29:02;11.80;99.90
19174;DHT22;9719;49.322;8.536;2023-03-31T04:34:04;11.80;99.90
19174;DHT22;9719;49.322;8.536;2023-03-31T04:39:13;11.90;99.90
19174;DHT22;9719;49.322;8.536;2023-03-31T04:44:16;11.90;99.90
19174;DHT22;9719;49.322;8.536;2023-03-31T04:49:18;11.90;99.90
19174;DHT22;9719;49.322;8.536;2023-03-31T04:54:20;11.90;99.90
19174;DHT22;9719;49.322;8.536;2023-03-31T04:59:23;11.90;99.90
19174;DHT22;9719;49.322;8.536;2023-03-31T05:04:25;11.90;99.90
19174;DHT22;9719;49.322;8.536;2023-03-31T05:09:27;11.90;99.90
19174;DHT22;9719;49.322;8.536;2023-03-31T05:14:30;11.90;99.90
19174;DHT22;9719;49.322;8.536;2023-03-31T05:19:32;11.80;99.90
19174;DHT22;9719;49.322;8.536;2023-03-31T05:24:34;11.60;99.90
19174;DHT22;9719;49.322;8.536;2023-03-31T05:29:37;11.40;99.90
19174;DHT22;9719;49.322;8.536;2023-03-31T05:34:39;11.30;99.90
19174;DHT22;9719;49.322;8.536;2023-03-31T05:39:45;11.20;99.90
19174;DHT22;9719;49.322;8.536;2023-03-31T05:44:48;11.10;99.90
19174;DHT22;9719;49.322;8.536;2023-03-31T05:49:50;11.00;99.90
19174;DHT22;9719;49.322;8.536;2023-03-31T05:54:52;11.00;99.90
19174;DHT22;9719;49.322;8.536;2023-03-31T05:59:55;11.00;99.90
19174;DHT22;9719;49.322;8.536;2023-03-31T06:04:57;11.00;99.90
19174;DHT22;9719;49.322;8.536;2023-03-31T06:09:59;11.00;99.90
19174;DHT22;9719;49.322;8.536;2023-03-31T06:15:03;11.10;99.90
19174;DHT22;9719;49.322;8.536;2023-03-31T06:20:06;11.10;99.90
19174;DHT22;9719;49.322;8.536;2023-03-31T06:25:08;11.10;99.90
19174;DHT22;9719;49.322;8.536;2023-03-31T06:30:12;11.10;99.90
19174;DHT22;9719;49.322;8.536;2023-03-31T06:35:14;11.20;99.90
19174;DHT22;9719;49.322;8.536;2023-03-31T06:40:16;11.20;99.90
19174;DHT22;9719;49.322;8.536;2023-03-31T06:45:20;11.20;99.90
19174;DHT22;9719;49.322;8.536;2023-03-31T06:50:21;11.40;99.90
19174;DHT22;9719;49.322;8.536;2023-03-31T06:55:23;11.50;99.90
19174;DHT22;9719;49.322;8.536;2023-03-31T07:00:27;11.60;99.90
19174;DHT22;9719;49.322;8.536;2023-03-31T07:05:29;11.80;99.90
19174;DHT22;9719;49.322;8.536;2023-03-31T07:10:31;11.90;99.90
19174;DHT22;9719;49.322;8.536;2023-03-31T07:15:35;11.90;99.90
19174;DHT22;9719;49.322;8.536;2023-03-31T07:20:37;12.00;99.90
19174;DHT22;9719;49.322;8.536;2023-03-31T07:25:39;12.10;99.90
19174;DHT22;9719;49.322;8.536;2023-03-31T07:30:42;12.40;99.90
19174;DHT22;9719;49.322;8.536;2023-03-31T07:35:44;12.70;99.90
19174;DHT22;9719;49.322;8.536;2023-03-31T07:40:45;13.30;99.90
19174;DHT22;9719;49.322;8.536;2023-03-31T07:45:49;13.60;99.90
19174;DHT22;9719;49.322;8.536;2023-03-31T07:50:51;13.70;99.90
19174;DHT22;9719;49.322;8.536;2023-03-31T07:55:53;13.60;99.90
19174;DHT22;9719;49.322;8.536;2023-03-31T08:00:58;13.20;99.90
19174;DHT22;9719;49.322;8.536;2023-03-31T08:06:00;12.90;99.90
19174;DHT22;9719;49.322;8.536;2023-03-31T08:11:02;13.00;99.90
19174;DHT22;9719;49.322;8.536;2023-03-31T08:16:05;13.50;99.90
19174;DHT22;9719;49.322;8.536;2023-03-31T08:21:07;14.20;99.90
19174;DHT22;9719;49.322;8.536;2023-03-31T08:26:15;14.70;99.90
19174;DHT22;9719;49.322;8.536;2023-03-31T08:31:22;14.90;99.90
19174;DHT22;9719;49.322;8.536;2023-03-31T08:36:25;15.10;99.90
19174;DHT22;9719;49.322;8.536;2023-03-31T08:41:38;15.20;99.90
19174;DHT22;9719;49.322;8.536;2023-03-31T08:46:43;15.30;99.90
19174;DHT22;9719;49.322;8.536;2023-03-31T08:51:48;15.40;99.90
19174;DHT22;9719;49.322;8.536;2023-03-31T08:56:51;15.80;99.90
19174;DHT22;9719;49.322;8.536;2023-03-31T09:02:04;16.30;99.90
19174;DHT22;9719;49.322;8.536;2023-03-31T09:07:15;17.20;99.90
19174;DHT22;9719;49.322;8.536;2023-03-31T09:12:21;16.80;99.90
19174;DHT22;9719;49.322;8.536;2023-03-31T09:17:27;15.80;99.90
19174;DHT22;9719;49.322;8.536;2023-03-31T09:22:33;14.90;99.90
19174;DHT22;9719;49.322;8.536;2023-03-31T09:27:38;14.70;99.90
19174;DHT22;9719;49.322;8.536;2023-03-31T09:32:45;14.70;99.90
19174;DHT22;9719;49.322;8.536;2023-03-31T09:37:48;14.80;99.90
19174;DHT22;9719;49.322;8.536;2023-03-31T09:42:55;15.20;99.90
19174;DHT22;9719;49.322;8.536;2023-03-31T09:48:01;15.70;99.90
19174;DHT22;9719;49.322;8.536;2023-03-31T09:53:13;15.60;99.90
19174;DHT22;9719;49.322;8.536;2023-03-31T09:58:16;16.10;99.90
19174;DHT22;9719;49.322;8.536;2023-03-31T10:03:19;17.40;99.90
19174;DHT22;9719;49.322;8.536;2023-03-31T10:08:28;18.80;99.90
19174;DHT22;9719;49.322;8.536;2023-03-31T10:13:36;19.20;95.50
19174;DHT22;9719;49.322;8.536;2023-03-31T10:18:42;20.30;95.70
19174;DHT22;9719;49.322;8.536;2023-03-31T10:23:46;20.20;92.30
19174;DHT22;9719;49.322;8.536;2023-03-31T10:28:49;22.70;90.50
19174;DHT22;9719;49.322;8.536;2023-03-31T10:33:54;24.00;74.70
19174;DHT22;9719;49.322;8.536;2023-03-31T10:38:58;24.10;69.60
19174;DHT22;9719;49.322;8.536;2023-03-31T10:44:02;22.30;69.70
19174;DHT22;9719;49.322;8.536;2023-03-31T10:49:13;16.10;99.90
19174;DHT22;9719;49.322;8.536;2023-03-31T10:54:16;13.90;99.90
19174;DHT22;9719;49.322;8.536;2023-03-31T10:59:35;12.70;99.90
19174;DHT22;9719;49.322;8.536;2023-03-31T11:04:56;13.40;99.90
19174;DHT22;9719;49.322;8.536;2023-03-31T11:10:10;14.00;99.90
19174;DHT22;9719;49.322;8.536;2023-03-31T11:15:21;15.00;99.90
19174;DHT22;9719;49.322;8.536;2023-03-31T11:20:31;18.50;99.90
19174;DHT22;9719;49.322;8.536;2023-03-31T11:25:38;20.70;99.90
19174;DHT22;9719;49.322;8.536;2023-03-31T11:30:51;20.70;99.90
19174;DHT22;9719;49.322;8.536;2023-03-31T11:36:15;20.80;99.90
19174;DHT22;9719;49.322;8.536;2023-03-31T11:41:32;20.80;99.90
19174;DHT22;9719;49.322;8.536;2023-03-31T11:46:39;21.00;99.90
19174;DHT22;9719;49.322;8.536;2023-03-31T11:51:47;20.50;99.90
19174;DHT22;9719;49.322;8.536;2023-03-31T11:56:52;20.60;99.90
19174;DHT22;9719;49.322;8.536;2023-03-31T12:02:03;21.20;99.90
19174;DHT22;9719;49.322;8.536;2023-03-31T12:07:21;22.30;99.90
19174;DHT22;9719;49.322;8.536;2023-03-31T12:12:28;21.40;99.90
19174;DHT22;9719;49.322;8.536;2023-03-31T12:17:31;19.80;99.90
19174;DHT22;9719;49.322;8.536;2023-03-31T12:22:38;18.60;99.90
19174;DHT22;9719;49.322;8.536;2023-03-31T12:27:44;17.20;99.90
19174;DHT22;9719;49.322;8.536;2023-03-31T12:32:52;16.50;99.90
19174;DHT22;9719;49.322;8.536;2023-03-31T12:38:18;15.90;99.90
19174;DHT22;9719;49.322;8.536;2023-03-31T12:43:48;15.80;99.90
19174;DHT22;9719;49.322;8.536;2023-03-31T12:49:01;15.80;99.90
19174;DHT22;9719;49.322;8.536;2023-03-31T12:54:18;16.40;99.90
19174;DHT22;9719;49.322;8.536;2023-03-31T12:59:28;16.60;99.90
19174;DHT22;9719;49.322;8.536;2023-03-31T13:04:32;16.90;99.90
19174;DHT22;9719;49.322;8.536;2023-03-31T13:09:43;16.40;99.90
19174;DHT22;9719;49.322;8.536;2023-03-31T13:14:47;17.10;99.90
19174;DHT22;9719;49.322;8.536;2023-03-31T13:19:51;20.30;99.90
19174;DHT22;9719;49.322;8.536;2023-03-31T13:30:52;22.00;93.10
19174;DHT22;9719;49.322;8.536;2023-03-31T13:36:05;21.50;94.30
19174;DHT22;9719;49.322;8.536;2023-03-31T13:41:28;21.60;93.70
19174;DHT22;9719;49.322;8.536;2023-03-31T13:47:02;22.40;93.40
19174;DHT22;9719;49.322;8.536;2023-03-31T13:52:09;23.50;90.00
19174;DHT22;9719;49.322;8.536;2023-03-31T13:57:37;22.60;88.40
19174;DHT22;9719;49.322;8.536;2023-03-31T14:02:52;22.70;85.60
19174;DHT22;9719;49.322;8.536;2023-03-31T14:07:58;22.90;84.80
19174;DHT22;9719;49.322;8.536;2023-03-31T14:13:07;22.60;85.40
19174;DHT22;9719;49.322;8.536;2023-03-31T14:18:12;22.20;87.70
19174;DHT22;9719;49.322;8.536;2023-03-31T14:23:29;23.90;79.00
19174;DHT22;9719;49.322;8.536;2023-03-31T14:28:51;23.60;75.60
19174;DHT22;9719;49.322;8.536;2023-03-31T14:34:12;22.10;80.00
19174;DHT22;9719;49.322;8.536;2023-03-31T14:39:20;20.30;85.90
19174;DHT22;9719;49.322;8.536;2023-03-31T14:44:24;19.70;90.20
19174;DHT22;9719;49.322;8.536;2023-03-31T14:49:29;19.40;91.20
19174;DHT22;9719;49.322;8.536;2023-03-31T14:54:35;19.20;91.20
19174;DHT22;9719;49.322;8.536;2023-03-31T14:59:39;19.00;91.20
19174;DHT22;9719;49.322;8.536;2023-03-31T15:04:41;18.70;93.50
19174;DHT22;9719;49.322;8.536;2023-03-31T15:09:49;18.30;94.70
19174;DHT22;9719;49.322;8.536;2023-03-31T15:14:55;18.10;95.50
19174;DHT22;9719;49.322;8.536;2023-03-31T15:19:59;17.90;95.50
19174;DHT22;9719;49.322;8.536;2023-03-31T15:25:04;18.20;95.90
19174;DHT22;9719;49.322;8.536;2023-03-31T15:30:13;17.90;95.70
19174;DHT22;9719;49.322;8.536;2023-03-31T15:35:20;17.90;95.40
19174;DHT22;9719;49.322;8.536;2023-03-31T15:40:25;17.30;95.30
19174;DHT22;9719;49.322;8.536;2023-03-31T15:45:45;16.60;99.90
19174;DHT22;9719;49.322;8.536;2023-03-31T15:50:48;15.80;99.90
19174;DHT22;9719;49.322;8.536;2023-03-31T15:55:53;14.90;99.90
19174;DHT22;9719;49.322;8.536;2023-03-31T16:01:02;14.50;99.90
19174;DHT22;9719;49.322;8.536;2023-03-31T16:06:09;14.40;99.90
19174;DHT22;9719;49.322;8.536;2023-03-31T16:11:18;14.30;99.90
19174;DHT22;9719;49.322;8.536;2023-03-31T16:16:24;14.20;99.90
19174;DHT22;9719;49.322;8.536;2023-03-31T16:21:29;14.30;99.90
19174;DHT22;9719;49.322;8.536;2023-03-31T16:26:35;14.30;99.90
19174;DHT22;9719;49.322;8.536;2023-03-31T16:31:39;14.30;99.90
19174;DHT22;9719;49.322;8.536;2023-03-31T16:36:41;14.20;99.90
19174;DHT22;9719;49.322;8.536;2023-03-31T16:41:43;14.20;99.90
19174;DHT22;9719;49.322;8.536;2023-03-31T16:46:47;14.00;99.90
19174;DHT22;9719;49.322;8.536;2023-03-31T16:51:49;13.90;99.90
19174;DHT22;9719;49.322;8.536;2023-03-31T16:56:51;13.80;99.90
19174;DHT22;9719;49.322;8.536;2023-03-31T17:01:55;13.70;99.90
19174;DHT22;9719;49.322;8.536;2023-03-31T17:06:57;13.60;99.90
19174;DHT22;9719;49.322;8.536;2023-03-31T17:12:01;13.50;99.90
19174;DHT22;9719;49.322;8.536;2023-03-31T17:17:15;13.40;99.90
19174;DHT22;9719;49.322;8.536;2023-03-31T17:22:19;13.20;99.90
19174;DHT22;9719;49.322;8.536;2023-03-31T17:27:20;13.20;99.90
19174;DHT22;9719;49.322;8.536;2023-03-31T17:32:24;13.10;99.90
19174;DHT22;9719;49.322;8.536;2023-03-31T17:37:25;12.90;99.90
19174;DHT22;9719;49.322;8.536;2023-03-31T17:42:27;12.70;99.90
19174;DHT22;9719;49.322;8.536;2023-03-31T17:47:32;12.60;99.90
19174;DHT22;9719;49.322;8.536;2023-03-31T17:52:34;12.40;99.90
19174;DHT22;9719;49.322;8.536;2023-03-31T17:57:36;12.30;99.90
19174;DHT22;9719;49.322;8.536;2023-03-31T18:02:41;12.20;99.90
19174;DHT22;9719;49.322;8.536;2023-03-31T18:07:43;12.20;99.90
19174;DHT22;9719;49.322;8.536;2023-03-31T18:12:45;12.30;99.90
19174;DHT22;9719;49.322;8.536;2023-03-31T18:17:48;12.10;99.90
19174;DHT22;9719;49.322;8.536;2023-03-31T18:22:50;12.10;99.90
19174;DHT22;9719;49.322;8.536;2023-03-31T18:27:52;12.00;99.90
19174;DHT22;9719;49.322;8.536;2023-03-31T18:32:55;12.00;99.90
19174;DHT22;9719;49.322;8.536;2023-03-31T18:37:58;11.90;99.90
19174;DHT22;9719;49.322;8.536;2023-03-31T18:43:00;11.90;99.90
19174;DHT22;9719;49.322;8.536;2023-03-31T18:48:03;11.90;99.90
19174;DHT22;9719;49.322;8.536;2023-03-31T18:53:05;11.80;99.90
19174;DHT22;9719;49.322;8.536;2023-03-31T18:58:29;11.90;99.90
19174;DHT22;9719;49.322;8.536;2023-03-31T19:03:34;11.80;99.90
19174;DHT22;9719;49.322;8.536;2023-03-31T19:08:36;11.70;99.90
19174;DHT22;9719;49.322;8.536;2023-03-31T19:13:38;11.60;99.90
19174;DHT22;9719;49.322;8.536;2023-03-31T19:18:42;11.50;99.90
19174;DHT22;9719;49.322;8.536;2023-03-31T19:23:48;11.40;99.90
19174;DHT22;9719;49.322;8.536;2023-03-31T19:29:07;11.50;99.90
19174;DHT22;9719;49.322;8.536;2023-03-31T19:34:10;11.50;99.90
19174;DHT22;9719;49.322;8.536;2023-03-31T19:39:12;11.60;99.90
19174;DHT22;9719;49.322;8.536;2023-03-31T19:44:14;11.60;99.90
19174;DHT22;9719;49.322;8.536;2023-03-31T20:00:57;11.60;99.90
19174;DHT22;9719;49.322;8.536;2023-03-31T20:06:04;11.40;99.90
19174;DHT22;9719;49.322;8.536;2023-03-31T20:11:07;11.40;99.90
19174;DHT22;9719;49.322;8.536;2023-03-31T20:16:13;11.40;99.90
19174;DHT22;9719;49.322;8.536;2023-03-31T20:21:17;11.40;99.90
19174;DHT22;9719;49.322;8.536;2023-03-31T20:26:21;11.40;99.90
19174;DHT22;9719;49.322;8.536;2023-03-31T20:31:26;11.20;99.90
19174;DHT22;9719;49.322;8.536;2023-03-31T20:36:33;11.20;99.90
19174;DHT22;9719;49.322;8.536;2023-03-31T20:41:39;11.10;99.90
19174;DHT22;9719;49.322;8.536;2023-03-31T20:46:43;11.00;99.90
19174;DHT22;9719;49.322;8.536;2023-03-31T20:51:45;11.00;99.90
19174;DHT22;9719;49.322;8.536;2023-03-31T21:02:49;10.90;99.90
19174;DHT22;9719;49.322;8.536;2023-03-31T21:07:53;11.00;99.90
19174;DHT22;9719;49.322;8.536;2023-03-31T21:12:56;11.00;99.90
19174;DHT22;9719;49.322;8.536;2023-03-31T21:17:59;11.10;99.90
19174;DHT22;9719;49.322;8.536;2023-03-31T21:23:01;11.10;99.90
19174;DHT22;9719;49.322;8.536;2023-03-31T21:28:03;11.20;99.90
19174;DHT22;9719;49.322;8.536;2023-03-31T21:33:06;11.20;99.90
19174;DHT22;9719;49.322;8.536;2023-03-31T21:38:08;11.30;99.90
19174;DHT22;9719;49.322;8.536;2023-03-31T21:43:10;11.40;99.90
19174;DHT22;9719;49.322;8.536;2023-03-31T21:48:14;11.50;99.90
19174;DHT22;9719;49.322;8.536;2023-03-31T21:53:16;11.70;99.90
19174;DHT22;9719;49.322;8.536;2023-03-31T21:58:18;11.70;99.90
19174;DHT22;9719;49.322;8.536;2023-03-31T22:03:21;11.70;99.90
19174;DHT22;9719;49.322;8.536;2023-03-31T22:08:25;11.70;99.90
19174;DHT22;9719;49.322;8.536;2023-03-31T22:13:28;11.60;99.90
19174;DHT22;9719;49.322;8.536;2023-03-31T22:18:31;11.60;99.90
19174;DHT22;9719;49.322;8.536;2023-03-31T22:23:33;11.60;99.90
19174;DHT22;9719;49.322;8.536;2023-03-31T22:28:35;11.50;99.90
19174;DHT22;9719;49.322;8.536;2023-03-31T22:33:38;11.50;99.90
19174;DHT22;9719;49.322;8.536;2023-03-31T22:38:40;11.50;99.90
19174;DHT22;9719;49.322;8.536;2023-03-31T22:43:42;11.50;99.90
19174;DHT22;9719;49.322;8.536;2023-03-31T22:48:48;11.60;99.90
19174;DHT22;9719;49.322;8.536;2023-03-31T22:53:51;11.70;99.90
19174;DHT22;9719;49.322;8.536;2023-03-31T22:58:55;11.70;99.90
19174;DHT22;9719;49.322;8.536;2023-03-31T23:03:59;11.70;99.90
19174;DHT22;9719;49.322;8.536;2023-03-31T23:09:01;11.70;99.90
19174;DHT22;9719;49.322;8.536;2023-03-31T23:14:03;11.70;99.90
19174;DHT22;9719;49.322;8.536;2023-03-31T23:19:06;11.70;99.90
19174;DHT22;9719;49.322;8.536;2023-03-31T23:24:09;11.70;99.90
19174;DHT22;9719;49.322;8.536;2023-03-31T23:29:11;11.70;99.90
19174;DHT22;9719;49.322;8.536;2023-03-31T23:34:15;11.70;99.90
19174;DHT22;9719;49.322;8.536;2023-03-31T23:39:17;11.70;99.90
19174;DHT22;9719;49.322;8.536;2023-03-31T23:44:19;11.70;99.90
19174;DHT22;9719;49.322;8.536;2023-03-31T23:49:24;11.60;99.90
19174;DHT22;9719;49.322;8.536;2023-03-31T23:54:26;11.70;99.90
19174;DHT22;9719;49.322;8.536;2023-03-31T23:59:28;11.70;99.90
